createdAt,value
2022-09-12T00:01:36.118Z,94476.63
2022-09-12T00:04:03.080Z,94472.75
2022-09-12T00:06:37.531Z,94472.56
2022-09-12T00:09:10.755Z,94475.00
2022-09-12T00:11:41.691Z,94467.56
2022-09-12T00:14:10.448Z,94478.13
2022-09-12T00:16:38.049Z,94469.50
2022-09-12T00:19:06.504Z,94463.34
2022-09-12T00:21:34.756Z,94471.44
2022-09-12T00:24:01.879Z,94464.66
2022-09-12T00:26:28.738Z,94463.13
2022-09-12T00:28:55.386Z,94457.91
2022-09-12T00:31:25.016Z,94461.31
2022-09-12T00:33:52.779Z,94459.16
2022-09-12T00:36:21.263Z,94454.72
2022-09-12T00:38:49.710Z,94459.63
2022-09-12T00:41:21.881Z,94447.34
2022-09-12T00:43:51.587Z,94447.16
2022-09-12T00:46:34.389Z,94443.88
2022-09-12T00:49:14.091Z,94448.25
2022-09-12T00:51:47.376Z,94447.88
2022-09-12T00:54:19.271Z,94449.81
2022-09-12T00:56:47.448Z,94442.53
2022-09-12T00:59:32.102Z,94443.81
2022-09-12T01:01:58.793Z,94450.22
2022-09-12T01:04:28.041Z,94449.81
2022-09-12T01:06:57.033Z,94448.28
2022-09-12T01:09:25.728Z,94443.53
2022-09-12T01:11:53.583Z,94440.94
2022-09-12T01:14:20.986Z,94435.13
2022-09-12T01:16:49.918Z,94434.03
2022-09-12T01:19:35.277Z,94425.63
2022-09-12T01:22:28.541Z,94427.47
2022-09-12T01:25:10.159Z,94418.38
2022-09-12T01:27:47.937Z,94417.91
2022-09-12T01:30:31.245Z,94411.72
2022-09-12T01:33:20.236Z,94416.94
2022-09-12T01:36:08.765Z,94417.03
2022-09-12T01:38:40.360Z,94406.41
2022-09-12T01:41:23.166Z,94411.34
2022-09-12T01:43:58.234Z,94409.59
2022-09-12T01:46:40.271Z,94403.97
2022-09-12T01:49:23.444Z,94400.69
2022-09-12T01:52:18.479Z,94400.13
2022-09-12T01:54:53.667Z,94388.72
2022-09-12T01:57:36.447Z,94391.25
2022-09-12T02:00:09.296Z,94390.19
2022-09-12T02:02:51.992Z,94395.31
2022-09-12T02:05:36.484Z,94396.84
2022-09-12T02:08:18.925Z,94388.22
2022-09-12T02:10:53.736Z,94393.16
2022-09-12T02:13:36.637Z,94393.53
2022-09-12T02:16:17.854Z,94390.19
2022-09-12T02:18:50.120Z,94390.56
2022-09-12T02:21:19.218Z,94390.66
2022-09-12T02:23:51.131Z,94390.94
2022-09-12T02:26:34.927Z,94397.72
2022-09-12T02:29:02.861Z,94388.34
2022-09-12T02:31:37.440Z,94389.88
2022-09-12T02:34:13.927Z,94394.13
2022-09-12T02:36:52.107Z,94395.28
2022-09-12T02:39:20.200Z,94391.78
2022-09-12T02:41:50.754Z,94384.84
2022-09-12T02:44:17.897Z,94382.50
2022-09-12T02:46:48.698Z,94378.31
2022-09-12T02:49:16.772Z,94377.84
2022-09-12T02:51:44.251Z,94374.19
2022-09-12T02:54:11.833Z,94378.84
2022-09-12T02:56:41.652Z,94379.63
2022-09-12T02:59:11.839Z,94370.59
2022-09-12T03:01:49.513Z,94369.44
2022-09-12T03:04:31.910Z,94368.28
2022-09-12T03:07:21.600Z,94369.13
2022-09-12T03:09:54.732Z,94373.38
2022-09-12T03:12:30.357Z,94365.56
2022-09-12T03:15:11.575Z,94363.72
2022-09-12T03:17:56.599Z,94369.22
2022-09-12T03:20:44.466Z,94364.31
2022-09-12T03:23:26.217Z,94361.69
2022-09-12T03:26:09.507Z,94370.88
2022-09-12T03:28:39.464Z,94355.88
2022-09-12T03:31:17.404Z,94361.88
2022-09-12T03:33:44.475Z,94366.78
2022-09-12T03:36:22.744Z,94356.94
2022-09-12T03:38:49.683Z,94359.84
2022-09-12T03:41:16.232Z,94367.09
2022-09-12T03:43:42.910Z,94366.00
2022-09-12T03:46:09.612Z,94364.66
2022-09-12T03:48:36.584Z,94362.63
2022-09-12T03:51:04.832Z,94360.81
2022-09-12T03:53:31.657Z,94358.88
2022-09-12T03:55:58.526Z,94364.78
2022-09-12T03:58:29.548Z,94364.50
2022-09-12T04:00:56.123Z,94359.47
2022-09-12T04:03:22.782Z,94355.59
2022-09-12T04:05:49.341Z,94362.84
2022-09-12T04:08:15.916Z,94356.38
2022-09-12T04:10:42.561Z,94367.38
2022-09-12T04:13:09.102Z,94362.75
2022-09-12T04:15:35.628Z,94367.97
2022-09-12T04:18:05.757Z,94354.25
2022-09-12T04:20:33.015Z,94358.84
2022-09-12T04:22:59.560Z,94366.75
2022-09-12T04:25:27.186Z,94362.31
2022-09-12T04:27:53.768Z,94357.91
2022-09-12T04:30:20.291Z,94360.50
2022-09-12T04:32:46.851Z,94355.84
2022-09-12T04:35:14.065Z,94352.25
2022-09-12T04:37:40.657Z,94359.88
2022-09-12T04:40:07.863Z,94360.25
2022-09-12T04:42:34.429Z,94361.88
2022-09-12T04:45:00.971Z,94361.94
2022-09-12T04:47:28.296Z,94355.06
2022-09-12T04:49:54.807Z,94364.34
2022-09-12T04:52:21.415Z,94368.78
2022-09-12T04:54:48.267Z,94369.84
2022-09-12T04:57:14.849Z,94364.16
2022-09-12T04:59:41.544Z,94363.16
2022-09-12T05:02:08.381Z,94356.97
2022-09-12T05:04:35.960Z,94359.78
2022-09-12T05:07:03.165Z,94363.16
2022-09-12T05:09:29.714Z,94356.97
2022-09-12T05:12:04.937Z,94365.69
2022-09-12T05:14:33.080Z,94365.97
2022-09-12T05:17:01.561Z,94370.63
2022-09-12T05:19:30.169Z,94362.03
2022-09-12T05:21:56.926Z,94362.09
2022-09-12T05:24:24.630Z,94369.53
2022-09-12T05:26:51.544Z,94366.59
2022-09-12T05:29:18.342Z,94357.16
2022-09-12T05:31:44.925Z,94369.59
2022-09-12T05:34:11.511Z,94374.81
2022-09-12T05:36:38.656Z,94370.88
2022-09-12T05:39:05.884Z,94378.09
2022-09-12T05:41:33.986Z,94377.84
2022-09-12T05:44:02.992Z,94379.00
2022-09-12T05:46:32.260Z,94379.69
2022-09-12T05:49:03.978Z,94371.78
2022-09-12T05:51:34.626Z,94377.59
2022-09-12T05:54:06.030Z,94379.06
2022-09-12T05:56:33.542Z,94377.16
2022-09-12T05:59:02.996Z,94383.84
2022-09-12T06:01:31.400Z,94383.94
2022-09-12T06:04:00.934Z,94390.53
2022-09-12T06:06:29.352Z,94386.66
2022-09-12T06:09:01.221Z,94387.28
2022-09-12T06:11:29.977Z,94382.94
2022-09-12T06:13:58.113Z,94387.16
2022-09-12T06:16:27.461Z,94381.72
2022-09-12T06:18:56.449Z,94378.63
2022-09-12T06:21:25.328Z,94383.06
2022-09-12T06:23:54.117Z,94388.25
2022-09-12T06:26:23.526Z,94371.13
2022-09-12T06:28:50.564Z,94371.34
2022-09-12T06:31:21.229Z,94379.63
2022-09-12T06:33:50.484Z,94365.53
2022-09-12T06:36:29.020Z,94375.66
2022-09-12T06:39:01.039Z,94367.75
2022-09-12T06:41:29.083Z,94374.16
2022-09-12T06:43:55.763Z,94379.31
2022-09-12T06:46:22.738Z,94381.22
2022-09-12T06:48:50.545Z,94376.06
2022-09-12T06:51:19.998Z,94376.88
2022-09-12T06:53:47.894Z,94376.59
2022-09-12T06:56:15.651Z,94379.00
2022-09-12T06:58:43.273Z,94372.22
2022-09-12T07:01:12.672Z,94374.81
2022-09-12T07:03:41.134Z,94372.03
2022-09-12T07:06:12.990Z,94367.72
2022-09-12T07:08:41.058Z,94370.97
2022-09-12T07:11:18.247Z,94375.56
2022-09-12T07:13:47.250Z,94366.59
2022-09-12T07:16:19.211Z,94373.03
2022-09-12T07:18:51.131Z,94367.47
2022-09-12T07:21:17.708Z,94363.75
2022-09-12T07:23:45.541Z,94357.34
2022-09-12T07:26:13.506Z,94362.47
2022-09-12T07:28:40.403Z,94364.28
2022-09-12T07:31:12.354Z,94372.88
2022-09-12T07:33:39.746Z,94375.63
2022-09-12T07:36:11.895Z,94366.63
2022-09-12T07:38:39.424Z,94377.84
2022-09-12T07:41:19.793Z,94371.16
2022-09-12T07:43:47.418Z,94374.81
2022-09-12T07:46:15.002Z,94371.22
2022-09-12T07:48:41.617Z,94378.16
2022-09-12T07:51:10.221Z,94377.97
2022-09-12T07:53:39.290Z,94376.53
2022-09-12T07:56:07.778Z,94378.25
2022-09-12T07:58:36.602Z,94380.69
2022-09-12T08:01:14.829Z,94382.22
2022-09-12T08:03:42.707Z,94383.78
2022-09-12T08:06:15.246Z,94384.53
2022-09-12T08:08:42.590Z,94391.78
2022-09-12T08:11:12.123Z,94385.25
2022-09-12T08:13:40.192Z,94389.22
2022-09-12T08:16:15.467Z,94389.94
2022-09-12T08:18:42.224Z,94391.72
2022-09-12T08:21:14.002Z,94393.97
2022-09-12T08:23:41.131Z,94385.09
2022-09-12T08:26:08.279Z,94389.63
2022-09-12T08:28:35.845Z,94387.09
2022-09-12T08:31:11.361Z,94395.56
2022-09-12T08:33:38.494Z,94397.56
2022-09-12T08:36:11.598Z,94393.06
2022-09-12T08:38:40.960Z,94401.97
2022-09-12T08:41:28.934Z,94401.22
2022-09-12T08:43:56.951Z,94402.91
2022-09-12T08:46:31.724Z,94394.81
2022-09-12T08:49:01.302Z,94390.00
2022-09-12T08:51:29.405Z,94392.75
2022-09-12T08:53:57.839Z,94399.00
2022-09-12T08:56:31.694Z,94398.69
2022-09-12T08:58:59.382Z,94392.84
2022-09-12T09:01:35.660Z,94392.44
2022-09-12T09:04:13.353Z,94394.41
2022-09-12T09:07:08.442Z,94394.94
2022-09-12T09:09:50.286Z,94390.88
2022-09-12T09:12:26.272Z,94389.25
2022-09-12T09:15:26.296Z,94385.81
2022-09-12T09:18:00.466Z,94382.88
2022-09-12T09:20:36.597Z,94389.56
2022-09-12T09:23:39.239Z,94385.09
2022-09-12T09:26:13.798Z,94381.25
2022-09-12T09:28:53.163Z,94377.34
2022-09-12T09:31:25.574Z,94387.47
2022-09-12T09:33:55.538Z,94382.09
2022-09-12T09:36:44.292Z,94382.63
2022-09-12T09:39:13.560Z,94381.41
2022-09-12T09:42:03.782Z,94382.69
2022-09-12T09:44:31.344Z,94388.84
2022-09-12T09:46:59.885Z,94379.81
2022-09-12T09:49:30.230Z,94380.59
2022-09-12T09:52:00.802Z,94383.75
2022-09-12T09:54:39.034Z,94388.19
2022-09-12T09:57:34.537Z,94382.84
2022-09-12T10:00:27.715Z,94387.19
2022-09-12T10:03:13.513Z,94375.78
2022-09-12T10:05:55.336Z,94378.25
2022-09-12T10:08:26.812Z,94386.00
2022-09-12T10:11:16.217Z,94383.09
2022-09-12T10:13:54.585Z,94382.50
2022-09-12T10:16:23.014Z,94386.00
2022-09-12T10:18:52.450Z,94377.81
2022-09-12T10:21:47.512Z,94378.16
2022-09-12T10:24:25.835Z,94373.94
2022-09-12T10:27:08.343Z,94370.41
2022-09-12T10:29:46.504Z,94369.44
2022-09-12T10:32:40.091Z,94363.19
2022-09-12T10:35:31.319Z,94362.91
2022-09-12T10:38:00.125Z,94360.50
2022-09-12T10:40:30.547Z,94369.13
2022-09-12T10:43:02.761Z,94363.41
2022-09-12T10:45:30.492Z,94372.53
2022-09-12T10:48:03.103Z,94372.78
2022-09-12T10:50:41.226Z,94373.41
2022-09-12T10:53:21.847Z,94373.16
2022-09-12T10:56:09.775Z,94370.50
2022-09-12T10:58:40.893Z,94370.59
2022-09-12T11:01:44.269Z,94374.53
2022-09-12T11:04:19.975Z,94376.09
2022-09-12T11:06:57.156Z,94372.56
2022-09-12T11:09:39.383Z,94372.16
2022-09-12T11:12:38.299Z,94370.78
2022-09-12T11:15:27.376Z,94364.50
2022-09-12T11:18:21.017Z,94366.72
2022-09-12T11:21:15.344Z,94356.78
2022-09-12T11:23:57.486Z,94366.69
2022-09-12T11:27:02.766Z,94351.28
2022-09-12T11:29:47.896Z,94358.31
2022-09-12T11:32:48.602Z,94353.97
2022-09-12T11:35:27.633Z,94344.28
2022-09-12T11:38:09.471Z,94352.41
2022-09-12T11:40:54.252Z,94345.38
2022-09-12T11:43:46.201Z,94332.59
2022-09-12T11:46:34.812Z,94340.38
2022-09-12T11:49:13.645Z,94340.03
2022-09-12T11:51:46.377Z,94347.44
2022-09-12T11:54:40.914Z,94348.03
2022-09-12T11:57:25.559Z,94334.81
2022-09-12T11:59:55.986Z,94334.88
2022-09-12T12:02:31.388Z,94332.31
2022-09-12T12:05:24.826Z,94324.41
2022-09-12T12:07:55.538Z,94320.25
2022-09-12T12:10:31.050Z,94323.69
2022-09-12T12:13:00.902Z,94316.16
2022-09-12T12:15:29.593Z,94324.16
2022-09-12T12:18:17.639Z,94316.13
2022-09-12T12:20:44.600Z,94312.63
2022-09-12T12:23:25.343Z,94311.94
2022-09-12T12:25:55.059Z,94305.47
2022-09-12T12:28:50.342Z,94302.41
2022-09-12T12:31:18.276Z,94295.84
2022-09-12T12:33:44.920Z,94300.72
2022-09-12T12:36:38.663Z,94285.53
2022-09-12T12:39:33.010Z,94286.31
2022-09-12T12:42:03.520Z,94287.88
2022-09-12T12:44:45.129Z,94279.88
2022-09-12T12:47:27.533Z,94272.59
2022-09-12T12:50:02.568Z,94274.13
2022-09-12T12:52:32.756Z,94277.59
2022-09-12T12:55:01.423Z,94273.50
2022-09-12T12:57:33.907Z,94278.13
2022-09-12T13:00:09.819Z,94275.53
2022-09-12T13:02:41.107Z,94272.88
2022-09-12T13:05:20.033Z,94278.97
2022-09-12T13:07:48.289Z,94261.41
2022-09-12T13:10:28.840Z,94264.06
2022-09-12T13:13:02.712Z,94261.78
2022-09-12T13:15:35.227Z,94269.00
2022-09-12T13:18:05.765Z,94270.53
2022-09-12T13:20:37.839Z,94263.22
2022-09-12T13:23:04.377Z,94269.72
2022-09-12T13:25:36.602Z,94267.75
2022-09-12T13:28:05.352Z,94274.19
2022-09-12T13:30:35.483Z,94266.19
2022-09-12T13:33:17.027Z,94266.91
2022-09-12T13:35:58.590Z,94261.69
2022-09-12T13:38:31.279Z,94263.56
2022-09-12T13:41:17.014Z,94260.19
2022-09-12T13:43:48.955Z,94259.03
2022-09-12T13:46:21.713Z,94244.94
2022-09-12T13:48:48.875Z,94251.41
2022-09-12T13:51:25.153Z,94251.84
2022-09-12T13:53:56.299Z,94252.63
2022-09-12T13:56:23.691Z,94248.75
2022-09-12T13:58:58.861Z,94243.03
2022-09-12T14:01:38.122Z,94241.16
2022-09-12T14:04:40.593Z,94240.69
2022-09-12T14:07:22.980Z,94242.91
2022-09-12T14:09:55.814Z,94234.69
2022-09-12T14:12:43.434Z,94234.97
2022-09-12T14:15:24.551Z,94231.16
2022-09-12T14:17:54.779Z,94237.38
2022-09-12T14:20:23.391Z,94234.84
2022-09-12T14:22:53.004Z,94231.44
2022-09-12T14:25:23.678Z,94225.69
2022-09-12T14:27:55.270Z,94225.13
2022-09-12T14:30:36.856Z,94218.09
2022-09-12T14:33:12.650Z,94211.81
2022-09-12T14:36:16.349Z,94207.34
2022-09-12T14:38:45.803Z,94203.22
2022-09-12T14:41:20.762Z,94198.94
2022-09-12T14:43:51.905Z,94190.88
2022-09-12T14:46:35.086Z,94196.22
2022-09-12T14:49:10.418Z,94193.22
2022-09-12T14:51:51.213Z,94189.03
2022-09-12T14:54:36.362Z,94182.50
2022-09-12T14:57:26.222Z,94183.88
2022-09-12T14:59:52.960Z,94180.69
2022-09-12T15:02:22.192Z,94185.16
2022-09-12T15:05:16.197Z,94178.91
2022-09-12T15:07:46.515Z,94180.81
2022-09-12T15:10:26.729Z,94171.94
2022-09-12T15:13:05.560Z,94175.81
2022-09-12T15:15:32.789Z,94178.72
2022-09-12T15:18:01.408Z,94178.28
2022-09-12T15:20:32.350Z,94179.34
2022-09-12T15:22:59.160Z,94172.50
2022-09-12T15:25:25.714Z,94178.19
2022-09-12T15:27:53.593Z,94173.25
2022-09-12T15:30:20.157Z,94175.38
2022-09-12T15:32:46.801Z,94172.91
2022-09-12T15:35:19.013Z,94174.88
2022-09-12T15:37:45.851Z,94174.59
2022-09-12T15:40:13.061Z,94174.53
2022-09-12T15:42:40.339Z,94168.44
2022-09-12T15:45:18.943Z,94179.28
2022-09-12T15:47:45.767Z,94175.94
2022-09-12T15:50:12.702Z,94171.69
2022-09-12T15:52:39.405Z,94170.13
2022-09-12T15:55:09.949Z,94170.63
2022-09-12T15:57:36.501Z,94167.47
2022-09-12T16:00:05.423Z,94163.38
2022-09-12T16:02:38.567Z,94164.66
2022-09-12T16:05:06.369Z,94166.88
2022-09-12T16:07:32.959Z,94160.69
2022-09-12T16:09:59.608Z,94157.56
2022-09-12T16:12:26.241Z,94159.81
2022-09-12T16:14:52.803Z,94162.59
2022-09-12T16:17:19.438Z,94156.88
2022-09-12T16:19:45.976Z,94157.09
2022-09-12T16:22:12.615Z,94159.56
2022-09-12T16:24:40.163Z,94151.66
2022-09-12T16:27:07.008Z,94152.19
2022-09-12T16:29:33.716Z,94143.97
2022-09-12T16:32:00.382Z,94145.63
2022-09-12T16:34:27.155Z,94149.28
2022-09-12T16:36:53.791Z,94135.25
2022-09-12T16:39:20.470Z,94129.97
2022-09-12T16:41:47.027Z,94131.63
2022-09-12T16:44:13.559Z,94136.00
2022-09-12T16:46:40.211Z,94132.03
2022-09-12T16:49:07.106Z,94129.34
2022-09-12T16:51:37.319Z,94118.03
2022-09-12T16:54:04.330Z,94123.81
2022-09-12T16:56:31.028Z,94128.03
2022-09-12T16:58:57.633Z,94127.31
2022-09-12T17:01:26.154Z,94125.03
2022-09-12T17:03:57.765Z,94120.41
2022-09-12T17:06:25.511Z,94121.34
2022-09-12T17:08:54.099Z,94116.59
2022-09-12T17:11:30.850Z,94118.34
2022-09-12T17:14:07.325Z,94123.41
2022-09-12T17:16:39.872Z,94125.75
2022-09-12T17:19:07.680Z,94116.13
2022-09-12T17:21:35.450Z,94115.13
2022-09-12T17:24:03.349Z,94112.16
2022-09-12T17:26:30.062Z,94116.03
2022-09-12T17:28:56.650Z,94104.59
2022-09-12T17:31:23.338Z,94121.44
2022-09-12T17:33:50.055Z,94123.84
2022-09-12T17:36:17.957Z,94123.97
2022-09-12T17:38:45.980Z,94122.63
2022-09-12T17:41:17.662Z,94123.91
2022-09-12T17:43:50.904Z,94119.91
2022-09-12T17:46:19.062Z,94124.94
2022-09-12T17:48:51.461Z,94130.41
2022-09-12T17:51:18.158Z,94132.00
2022-09-12T17:53:44.754Z,94138.56
2022-09-12T17:56:11.869Z,94137.59
2022-09-12T17:58:38.897Z,94132.81
2022-09-12T18:01:25.216Z,94135.59
2022-09-12T18:03:56.166Z,94139.09
2022-09-12T18:06:23.716Z,94138.88
2022-09-12T18:08:50.467Z,94141.25
2022-09-12T18:11:17.510Z,94139.22
2022-09-12T18:13:44.103Z,94145.47
2022-09-12T18:16:13.568Z,94146.72
2022-09-12T18:18:40.377Z,94140.72
2022-09-12T18:21:08.417Z,94158.34
2022-09-12T18:23:35.170Z,94158.44
2022-09-12T18:26:08.678Z,94160.41
2022-09-12T18:28:38.194Z,94163.63
2022-09-12T18:31:11.512Z,94164.16
2022-09-12T18:33:38.182Z,94157.00
2022-09-12T18:36:06.857Z,94160.13
2022-09-12T18:38:33.728Z,94153.16
2022-09-12T18:41:11.679Z,94145.06
2022-09-12T18:43:38.827Z,94146.00
2022-09-12T18:46:12.078Z,94151.19
2022-09-12T18:48:38.954Z,94152.84
2022-09-12T18:51:14.800Z,94155.75
2022-09-12T18:53:42.571Z,94150.72
2022-09-12T18:56:13.861Z,94160.38
2022-09-12T18:58:42.028Z,94148.53
2022-09-12T19:01:17.027Z,94157.78
2022-09-12T19:03:44.348Z,94154.56
2022-09-12T19:06:17.835Z,94150.38
2022-09-12T19:08:45.631Z,94163.91
2022-09-12T19:11:13.159Z,94159.28
2022-09-12T19:13:42.064Z,94160.72
2022-09-12T19:16:11.108Z,94167.44
2022-09-12T19:18:39.015Z,94160.19
2022-09-12T19:21:07.882Z,94163.03
2022-09-12T19:23:35.496Z,94160.75
2022-09-12T19:26:08.024Z,94157.25
2022-09-12T19:28:35.042Z,94157.47
2022-09-12T19:31:07.070Z,94156.19
2022-09-12T19:33:34.161Z,94147.19
2022-09-12T19:36:03.396Z,94151.13
2022-09-12T19:38:30.296Z,94144.13
2022-09-12T19:40:58.422Z,94147.88
2022-09-12T19:43:25.949Z,94142.81
2022-09-12T19:45:53.052Z,94139.31
2022-09-12T19:48:20.383Z,94150.50
2022-09-12T19:50:47.385Z,94144.38
2022-09-12T19:53:15.023Z,94129.03
2022-09-12T19:55:41.677Z,94134.72
2022-09-12T19:58:08.381Z,94122.56
2022-09-12T20:00:36.036Z,94131.88
2022-09-12T20:03:03.989Z,94130.34
2022-09-12T20:05:32.899Z,94129.13
2022-09-12T20:07:59.820Z,94132.88
2022-09-12T20:10:26.622Z,94128.16
2022-09-12T20:12:53.241Z,94128.03
2022-09-12T20:15:19.781Z,94143.53
2022-09-12T20:17:46.370Z,94139.22
2022-09-12T20:20:12.948Z,94138.91
2022-09-12T20:22:40.285Z,94141.13
2022-09-12T20:25:07.546Z,94135.41
2022-09-12T20:27:34.189Z,94136.94
2022-09-12T20:30:00.799Z,94138.03
2022-09-12T20:32:28.955Z,94130.47
2022-09-12T20:34:56.403Z,94132.75
2022-09-12T20:37:23.704Z,94128.94
2022-09-12T20:39:51.095Z,94127.06
2022-09-12T20:42:17.859Z,94132.34
2022-09-12T20:44:44.429Z,94127.41
2022-09-12T20:47:11.203Z,94130.34
2022-09-12T20:49:37.725Z,94127.94
2022-09-12T20:52:04.670Z,94129.59
2022-09-12T20:54:31.238Z,94126.00
2022-09-12T20:56:57.816Z,94123.34
2022-09-12T20:59:24.373Z,94126.06
2022-09-12T21:01:51.112Z,94130.31
2022-09-12T21:04:18.485Z,94133.44
2022-09-12T21:06:45.075Z,94126.88
2022-09-12T21:09:11.621Z,94129.28
2022-09-12T21:11:38.217Z,94123.44
2022-09-12T21:14:04.876Z,94128.56
2022-09-12T21:16:31.798Z,94121.03
2022-09-12T21:18:59.545Z,94126.16
2022-09-12T21:21:26.659Z,94122.31
2022-09-12T21:23:55.316Z,94111.59
2022-09-12T21:26:21.874Z,94113.88
2022-09-12T21:28:48.591Z,94117.47
2022-09-12T21:31:15.242Z,94108.25
2022-09-12T21:33:41.911Z,94116.00
2022-09-12T21:36:09.644Z,94110.41
2022-09-12T21:38:36.428Z,94107.97
2022-09-12T21:41:08.778Z,94101.38
2022-09-12T21:43:36.454Z,94101.25
2022-09-12T21:46:03.964Z,94100.22
2022-09-12T21:48:30.683Z,94109.97
2022-09-12T21:50:57.433Z,94112.16
2022-09-12T21:53:24.967Z,94109.09
2022-09-12T21:55:51.797Z,94106.75
2022-09-12T21:58:18.387Z,94107.41
2022-09-12T22:00:45.233Z,94108.06
2022-09-12T22:03:12.709Z,94104.22
2022-09-12T22:05:43.200Z,94104.97
2022-09-12T22:08:10.906Z,94113.31
2022-09-12T22:10:38.542Z,94102.03
2022-09-12T22:13:05.488Z,94109.59
2022-09-12T22:15:40.946Z,94113.75
2022-09-12T22:18:07.901Z,94119.81
2022-09-12T22:20:34.505Z,94123.00
2022-09-12T22:23:24.344Z,94125.56
2022-09-12T22:25:55.504Z,94115.91
2022-09-12T22:28:22.654Z,94118.06
2022-09-12T22:30:49.267Z,94123.31
2022-09-12T22:33:15.861Z,94119.31
2022-09-12T22:35:42.491Z,94106.50
2022-09-12T22:38:09.217Z,94086.50
2022-09-12T22:40:35.776Z,94089.19
2022-09-12T22:43:02.426Z,94075.94
2022-09-12T22:45:29.314Z,94092.38
2022-09-12T22:48:00.379Z,94078.19
2022-09-12T22:50:27.639Z,94077.84
2022-09-12T22:52:54.288Z,94071.97
2022-09-12T22:55:20.977Z,94066.72
2022-09-12T22:57:47.581Z,94061.47
2022-09-12T23:00:14.987Z,94059.50
2022-09-12T23:02:41.666Z,94068.78
2022-09-12T23:05:08.581Z,94057.84
2022-09-12T23:07:35.708Z,94054.00
2022-09-12T23:10:02.397Z,94052.91
2022-09-12T23:12:29.026Z,94048.75
2022-09-12T23:14:55.572Z,94047.22
2022-09-12T23:17:22.159Z,94041.97
2022-09-12T23:19:48.725Z,94039.81
2022-09-12T23:22:15.363Z,94034.56
2022-09-12T23:24:41.894Z,94031.47
2022-09-12T23:27:08.952Z,94039.91
2022-09-12T23:29:35.780Z,94034.22
2022-09-12T23:32:05.946Z,94034.56
2022-09-12T23:34:33.660Z,94027.78
2022-09-12T23:37:00.248Z,94040.25
2022-09-12T23:39:26.843Z,94037.94
2022-09-12T23:41:53.406Z,94032.09
2022-09-12T23:44:19.967Z,94036.47
2022-09-12T23:46:46.638Z,94034.03
2022-09-12T23:49:13.406Z,94041.19
2022-09-12T23:51:40.066Z,94037.56
2022-09-12T23:54:06.709Z,94034.13
2022-09-12T23:56:33.297Z,94025.81
2022-09-12T23:59:00.036Z,94028.63
